createdAt,value
2023-05-14T00:00:04.878Z,12.62
2023-05-14T00:02:33.127Z,12.62
2023-05-14T00:04:59.852Z,12.74
2023-05-14T00:07:30.804Z,12.79
2023-05-14T00:09:58.371Z,12.69
2023-05-14T00:12:26.317Z,12.65
2023-05-14T00:14:53.479Z,12.68
2023-05-14T00:17:20.088Z,12.68
2023-05-14T00:19:46.823Z,12.77
2023-05-14T00:22:13.549Z,12.68
2023-05-14T00:24:40.208Z,12.78
2023-05-14T00:27:07.281Z,12.84
2023-05-14T00:29:34.175Z,12.87
2023-05-14T00:32:00.809Z,12.83
2023-05-14T00:34:27.507Z,12.80
2023-05-14T00:36:54.165Z,12.73
2023-05-14T00:39:21.044Z,12.74
2023-05-14T00:41:47.692Z,12.67
2023-05-14T00:44:14.341Z,12.67
2023-05-14T00:46:41.198Z,12.65
2023-05-14T00:49:08.325Z,12.64
2023-05-14T00:51:34.969Z,12.61
2023-05-14T00:54:01.916Z,12.63
2023-05-14T00:56:29.084Z,12.58
2023-05-14T00:58:55.863Z,12.68
2023-05-14T01:01:22.752Z,12.61
2023-05-14T01:03:49.879Z,12.61
2023-05-14T01:06:53.663Z,12.58
2023-05-14T01:09:56.869Z,12.61
2023-05-14T01:12:39.535Z,12.48
2023-05-14T01:15:12.718Z,12.43
2023-05-14T01:17:46.285Z,12.34
2023-05-14T01:20:13.507Z,12.30
2023-05-14T01:22:40.220Z,12.23
2023-05-14T01:25:07.488Z,12.29
2023-05-14T01:27:43.175Z,12.25
2023-05-14T01:30:17.988Z,12.27
2023-05-14T01:32:51.045Z,12.31
2023-05-14T01:35:18.916Z,12.34
2023-05-14T01:37:47.171Z,12.30
2023-05-14T01:40:14.719Z,12.27
2023-05-14T01:42:42.701Z,12.22
2023-05-14T01:45:09.951Z,12.13
2023-05-14T01:47:36.703Z,12.14
2023-05-14T01:50:03.761Z,12.16
2023-05-14T01:52:30.361Z,12.20
2023-05-14T01:54:58.407Z,12.28
2023-05-14T01:57:25.056Z,12.29
2023-05-14T01:59:51.861Z,12.22
2023-05-14T02:02:18.493Z,12.25
2023-05-14T02:04:45.306Z,12.16
2023-05-14T02:07:11.958Z,12.16
2023-05-14T02:09:40.078Z,12.09
2023-05-14T02:12:08.707Z,12.07
2023-05-14T02:14:35.948Z,12.18
2023-05-14T02:17:03.506Z,12.21
2023-05-14T02:19:30.558Z,12.16
2023-05-14T02:21:59.360Z,12.07
2023-05-14T02:24:26.101Z,11.92
2023-05-14T02:26:53.077Z,11.78
2023-05-14T02:29:19.809Z,11.71
2023-05-14T02:31:46.365Z,11.62
2023-05-14T02:34:13.087Z,11.70
2023-05-14T02:36:40.029Z,11.62
2023-05-14T02:39:06.664Z,11.69
2023-05-14T02:41:33.381Z,11.64
2023-05-14T02:44:00.114Z,11.48
2023-05-14T02:46:26.814Z,11.50
2023-05-14T02:48:54.982Z,11.64
2023-05-14T02:51:21.887Z,11.72
2023-05-14T02:53:48.981Z,11.73
2023-05-14T02:56:15.904Z,11.66
2023-05-14T02:58:42.689Z,11.72
2023-05-14T03:01:09.464Z,11.63
2023-05-14T03:03:36.846Z,11.59
2023-05-14T03:06:04.905Z,11.54
2023-05-14T03:08:31.669Z,11.65
2023-05-14T03:10:58.474Z,11.67
2023-05-14T03:13:25.324Z,11.77
2023-05-14T03:15:54.958Z,11.80
2023-05-14T03:18:22.251Z,11.83
2023-05-14T03:20:49.039Z,11.81
2023-05-14T03:23:15.846Z,11.85
2023-05-14T03:25:42.581Z,11.84
2023-05-14T03:28:09.816Z,11.85
2023-05-14T03:30:36.588Z,11.86
2023-05-14T03:33:03.640Z,11.89
2023-05-14T03:35:30.263Z,11.83
2023-05-14T03:37:59.209Z,11.68
2023-05-14T03:40:26.196Z,11.73
2023-05-14T03:42:52.983Z,11.80
2023-05-14T03:45:19.905Z,11.77
2023-05-14T03:47:46.726Z,11.37
2023-05-14T03:50:13.439Z,11.36
2023-05-14T03:52:40.589Z,11.21
2023-05-14T03:55:08.488Z,11.37
2023-05-14T03:57:36.718Z,11.30
2023-05-14T04:00:07.238Z,11.21
2023-05-14T04:02:43.755Z,11.34
2023-05-14T04:05:11.109Z,11.47
2023-05-14T04:07:37.860Z,11.53
2023-05-14T04:10:05.023Z,11.47
2023-05-14T04:12:34.505Z,11.51
2023-05-14T04:15:01.528Z,11.56
2023-05-14T04:17:28.466Z,11.52
2023-05-14T04:19:55.153Z,11.53
2023-05-14T04:22:21.735Z,11.52
2023-05-14T04:24:48.374Z,11.59
2023-05-14T04:27:21.448Z,11.60
2023-05-14T04:29:51.618Z,11.61
2023-05-14T04:32:18.398Z,11.66
2023-05-14T04:34:45.083Z,11.68
2023-05-14T04:37:11.815Z,11.63
2023-05-14T04:39:38.782Z,11.65
2023-05-14T04:42:06.812Z,11.67
2023-05-14T04:44:37.677Z,11.68
2023-05-14T04:47:04.737Z,11.85
2023-05-14T04:49:31.888Z,11.92
2023-05-14T04:51:58.586Z,11.98
2023-05-14T04:54:25.243Z,11.94
2023-05-14T04:56:51.990Z,11.81
2023-05-14T04:59:18.641Z,11.81
2023-05-14T05:01:45.923Z,11.80
2023-05-14T05:04:13.043Z,11.80
2023-05-14T05:06:40.119Z,11.86
2023-05-14T05:09:06.808Z,11.79
2023-05-14T05:11:33.510Z,11.83
2023-05-14T05:14:00.613Z,11.80
2023-05-14T05:16:27.461Z,11.78
2023-05-14T05:18:54.195Z,11.81
2023-05-14T05:21:20.974Z,11.92
2023-05-14T05:23:47.607Z,11.98
2023-05-14T05:26:14.296Z,11.93
2023-05-14T05:28:41.014Z,11.93
2023-05-14T05:31:08.068Z,11.93
2023-05-14T05:33:35.601Z,11.99
2023-05-14T05:36:02.296Z,12.01
2023-05-14T05:38:28.907Z,12.03
2023-05-14T05:40:55.836Z,12.16
2023-05-14T05:43:22.427Z,12.16
2023-05-14T05:45:49.097Z,12.20
2023-05-14T05:48:15.708Z,12.12
2023-05-14T05:50:44.740Z,12.04
2023-05-14T05:53:11.378Z,12.02
2023-05-14T05:55:38.093Z,11.98
2023-05-14T05:58:04.762Z,11.88
2023-05-14T06:00:32.102Z,12.00
2023-05-14T06:02:58.689Z,12.09
2023-05-14T06:05:25.648Z,12.07
2023-05-14T06:07:53.642Z,12.12
2023-05-14T06:10:20.413Z,12.20
2023-05-14T06:12:47.145Z,12.26
2023-05-14T06:15:14.429Z,12.28
2023-05-14T06:17:41.543Z,12.31
2023-05-14T06:20:09.066Z,12.34
2023-05-14T06:22:35.858Z,12.37
2023-05-14T06:25:02.495Z,12.39
2023-05-14T06:27:29.174Z,12.36
2023-05-14T06:29:56.274Z,12.37
2023-05-14T06:32:23.103Z,12.37
2023-05-14T06:34:49.933Z,12.38
2023-05-14T06:37:16.514Z,12.39
2023-05-14T06:39:49.894Z,12.44
2023-05-14T06:42:17.225Z,12.47
2023-05-14T06:44:44.591Z,12.47
2023-05-14T06:47:11.422Z,12.51
2023-05-14T06:49:39.478Z,12.43
2023-05-14T06:52:06.655Z,12.41
2023-05-14T06:54:33.405Z,12.40
2023-05-14T06:57:00.334Z,12.39
2023-05-14T06:59:26.990Z,12.46
2023-05-14T07:01:53.889Z,12.44
2023-05-14T07:04:20.656Z,12.47
2023-05-14T07:06:47.573Z,12.51
2023-05-14T07:09:14.461Z,12.54
2023-05-14T07:11:41.158Z,12.57
2023-05-14T07:14:07.761Z,12.70
2023-05-14T07:16:34.721Z,12.71
2023-05-14T07:19:01.415Z,12.82
2023-05-14T07:21:28.256Z,12.82
2023-05-14T07:23:54.966Z,12.85
2023-05-14T07:26:24.262Z,12.85
2023-05-14T07:28:50.994Z,12.87
2023-05-14T07:31:18.249Z,12.84
2023-05-14T07:33:45.275Z,12.83
2023-05-14T07:36:11.997Z,12.82
2023-05-14T07:38:38.970Z,12.78
2023-05-14T07:41:05.753Z,12.77
2023-05-14T07:43:32.447Z,12.76
2023-05-14T07:45:59.332Z,12.80
2023-05-14T07:48:26.195Z,12.74
2023-05-14T07:50:52.836Z,12.67
2023-05-14T07:53:19.667Z,12.67
2023-05-14T07:55:48.420Z,12.70
2023-05-14T07:58:16.079Z,12.81
2023-05-14T08:00:42.788Z,12.84
2023-05-14T08:03:09.576Z,12.87
2023-05-14T08:05:36.334Z,12.92
2023-05-14T08:08:03.387Z,12.92
2023-05-14T08:10:31.471Z,12.94
2023-05-14T08:12:58.139Z,12.94
2023-05-14T08:15:27.579Z,13.07
2023-05-14T08:17:54.944Z,13.12
2023-05-14T08:20:22.287Z,13.15
2023-05-14T08:22:49.388Z,13.14
2023-05-14T08:25:16.136Z,13.19
2023-05-14T08:27:42.970Z,13.29
2023-05-14T08:30:09.928Z,13.27
2023-05-14T08:32:38.588Z,13.30
2023-05-14T08:35:05.884Z,13.35
2023-05-14T08:37:32.687Z,13.38
2023-05-14T08:39:59.340Z,13.49
2023-05-14T08:42:27.018Z,13.58
2023-05-14T08:45:02.617Z,13.59
2023-05-14T08:47:30.779Z,13.69
2023-05-14T08:50:08.326Z,13.74
2023-05-14T08:52:35.457Z,13.68
2023-05-14T08:55:06.605Z,13.60
2023-05-14T08:57:34.364Z,13.50
2023-05-14T09:00:02.294Z,13.43
2023-05-14T09:02:31.334Z,13.40
2023-05-14T09:04:59.820Z,13.42
2023-05-14T09:07:26.941Z,13.55
2023-05-14T09:09:54.510Z,13.78
2023-05-14T09:12:22.007Z,13.95
2023-05-14T09:14:49.953Z,14.08
2023-05-14T09:17:17.983Z,14.25
2023-05-14T09:19:49.063Z,14.37
2023-05-14T09:22:17.651Z,14.44
2023-05-14T09:24:44.873Z,14.58
2023-05-14T09:27:21.415Z,14.63
2023-05-14T09:29:48.603Z,14.66
2023-05-14T09:32:15.209Z,14.66
2023-05-14T09:34:42.393Z,14.67
2023-05-14T09:37:10.097Z,14.93
2023-05-14T09:39:38.148Z,14.96
2023-05-14T09:42:05.193Z,15.15
2023-05-14T09:44:32.085Z,15.25
2023-05-14T09:46:59.255Z,15.30
2023-05-14T09:49:26.132Z,15.47
2023-05-14T09:51:52.960Z,15.49
2023-05-14T09:54:19.833Z,15.57
2023-05-14T09:56:46.484Z,15.72
2023-05-14T09:59:13.338Z,15.80
2023-05-14T10:01:42.478Z,15.73
2023-05-14T10:04:11.162Z,15.74
2023-05-14T10:06:39.257Z,15.77
2023-05-14T10:09:16.855Z,15.72
2023-05-14T10:11:45.049Z,15.73
2023-05-14T10:14:18.605Z,15.77
2023-05-14T10:16:51.423Z,15.95
2023-05-14T10:19:20.818Z,15.92
2023-05-14T10:21:53.065Z,16.01
2023-05-14T10:24:20.755Z,16.05
2023-05-14T10:26:48.646Z,16.23
2023-05-14T10:29:15.618Z,16.34
2023-05-14T10:31:53.992Z,16.41
2023-05-14T10:34:44.111Z,16.44
2023-05-14T10:37:14.077Z,16.44
2023-05-14T10:39:43.760Z,16.33
2023-05-14T10:42:35.400Z,16.26
2023-05-14T10:45:07.360Z,16.18
2023-05-14T10:47:43.365Z,16.00
2023-05-14T10:50:12.509Z,16.07
2023-05-14T10:52:42.888Z,16.06
2023-05-14T10:55:13.911Z,16.06
2023-05-14T10:57:43.403Z,16.23
2023-05-14T11:00:11.448Z,16.19
2023-05-14T11:02:40.677Z,16.23
2023-05-14T11:05:11.081Z,16.21
2023-05-14T11:07:42.556Z,16.27
2023-05-14T11:10:11.771Z,16.33
2023-05-14T11:12:40.896Z,16.35
2023-05-14T11:15:13.289Z,16.28
2023-05-14T11:17:41.739Z,16.29
2023-05-14T11:20:09.147Z,16.48
2023-05-14T11:22:37.460Z,16.52
2023-05-14T11:25:04.816Z,16.54
2023-05-14T11:27:33.933Z,16.47
2023-05-14T11:30:01.110Z,16.42
2023-05-14T11:32:27.985Z,16.40
2023-05-14T11:34:54.695Z,16.45
2023-05-14T11:37:21.614Z,16.55
2023-05-14T11:39:55.537Z,16.62
2023-05-14T11:42:23.716Z,16.66
2023-05-14T11:44:52.250Z,16.84
2023-05-14T11:47:20.908Z,16.86
2023-05-14T11:49:48.661Z,17.02
2023-05-14T11:52:16.655Z,17.16
2023-05-14T11:54:44.422Z,17.24
2023-05-14T11:57:18.179Z,17.30
2023-05-14T11:59:45.532Z,17.17
2023-05-14T12:02:14.190Z,17.16
2023-05-14T12:04:42.257Z,17.37
2023-05-14T12:07:15.848Z,17.27
2023-05-14T12:09:50.044Z,17.17
2023-05-14T12:12:19.992Z,17.14
2023-05-14T12:14:46.896Z,17.36
2023-05-14T12:17:21.846Z,17.45
2023-05-14T12:19:52.415Z,17.45
2023-05-14T12:22:21.080Z,17.68
2023-05-14T12:24:58.691Z,17.84
2023-05-14T12:27:28.641Z,18.02
2023-05-14T12:30:09.126Z,17.89
2023-05-14T12:32:46.532Z,17.89
2023-05-14T12:35:13.247Z,17.82
2023-05-14T12:37:40.069Z,17.84
2023-05-14T12:40:09.512Z,17.85
2023-05-14T12:42:36.792Z,17.73
2023-05-14T12:45:07.044Z,17.85
2023-05-14T12:47:34.063Z,17.91
2023-05-14T12:50:00.756Z,18.20
2023-05-14T12:52:37.540Z,18.36
2023-05-14T12:55:05.835Z,18.40
2023-05-14T12:57:32.495Z,18.46
2023-05-14T12:59:59.217Z,18.33
2023-05-14T13:02:26.085Z,18.35
2023-05-14T13:04:52.727Z,18.23
2023-05-14T13:07:19.425Z,17.85
2023-05-14T13:09:46.154Z,17.79
2023-05-14T13:12:12.817Z,17.63
2023-05-14T13:14:39.469Z,17.52
2023-05-14T13:17:08.032Z,17.40
2023-05-14T13:19:34.890Z,17.38
2023-05-14T13:22:01.499Z,17.35
2023-05-14T13:24:28.152Z,17.57
2023-05-14T13:26:54.845Z,17.86
2023-05-14T13:29:21.585Z,17.94
2023-05-14T13:31:48.347Z,17.85
2023-05-14T13:34:14.989Z,17.91
2023-05-14T13:36:43.564Z,17.98
2023-05-14T13:39:13.091Z,17.92
2023-05-14T13:41:41.336Z,17.96
2023-05-14T13:44:07.920Z,18.00
2023-05-14T13:46:35.030Z,17.98
2023-05-14T13:49:01.851Z,17.98
2023-05-14T13:51:28.462Z,18.00
2023-05-14T13:56:26.650Z,18.13
2023-05-14T13:58:53.336Z,18.31
2023-05-14T14:01:20.001Z,18.34
2023-05-14T14:03:47.052Z,18.28
2023-05-14T14:06:13.812Z,18.26
2023-05-14T14:08:40.468Z,18.17
2023-05-14T14:11:07.215Z,18.21
2023-05-14T14:13:33.833Z,18.21
2023-05-14T14:16:03.057Z,18.17
2023-05-14T14:18:29.759Z,18.11
2023-05-14T14:20:56.398Z,18.07
2023-05-14T14:23:23.116Z,17.90
2023-05-14T14:25:49.831Z,17.78
2023-05-14T14:28:16.670Z,17.72
2023-05-14T14:30:43.950Z,17.76
2023-05-14T14:33:11.318Z,17.96
2023-05-14T14:35:38.101Z,18.06
2023-05-14T14:38:04.759Z,18.01
2023-05-14T14:40:33.879Z,17.89
2023-05-14T14:43:00.825Z,17.86
2023-05-14T14:45:28.142Z,17.84
2023-05-14T14:48:41.231Z,17.82
2023-05-14T14:51:08.852Z,17.82
2023-05-14T14:53:36.980Z,17.79
2023-05-14T14:56:04.472Z,17.77
2023-05-14T14:58:31.270Z,17.74
2023-05-14T15:00:58.658Z,17.72
2023-05-14T15:03:26.076Z,17.70
2023-05-14T15:05:53.832Z,17.64
2023-05-14T15:08:24.314Z,17.70
2023-05-14T15:10:51.155Z,17.87
2023-05-14T15:13:18.048Z,18.08
2023-05-14T15:15:44.762Z,18.14
2023-05-14T15:18:11.498Z,18.15
2023-05-14T15:20:38.698Z,18.15
2023-05-14T15:23:05.814Z,17.98
2023-05-14T15:25:32.646Z,17.88
2023-05-14T15:27:59.380Z,17.89
2023-05-14T15:30:26.315Z,17.92
2023-05-14T15:32:53.588Z,17.86
2023-05-14T15:35:20.523Z,17.82
2023-05-14T15:37:47.173Z,17.79
2023-05-14T15:40:13.966Z,17.72
2023-05-14T15:42:42.331Z,17.63
2023-05-14T15:45:10.403Z,17.64
2023-05-14T15:47:37.384Z,17.59
2023-05-14T15:50:05.337Z,17.57
2023-05-14T15:52:32.194Z,17.59
2023-05-14T15:54:59.581Z,17.46
2023-05-14T15:57:26.423Z,17.57
2023-05-14T15:59:53.117Z,17.54
2023-05-14T16:02:19.814Z,17.54
2023-05-14T16:04:46.511Z,17.56
2023-05-14T16:07:13.439Z,17.53
2023-05-14T16:09:40.472Z,17.46
2023-05-14T16:12:08.389Z,17.50
2023-05-14T16:14:35.802Z,17.51
2023-05-14T16:17:02.763Z,17.51
2023-05-14T16:19:29.483Z,17.41
2023-05-14T16:21:56.188Z,17.36
2023-05-14T16:24:22.858Z,17.33
2023-05-14T16:26:49.552Z,17.26
2023-05-14T16:29:16.352Z,17.21
2023-05-14T16:31:43.180Z,17.26
2023-05-14T16:34:09.954Z,17.23
2023-05-14T16:36:39.037Z,17.20
2023-05-14T16:39:07.720Z,17.25
2023-05-14T16:41:35.428Z,17.26
2023-05-14T16:44:02.504Z,17.19
2023-05-14T16:46:29.504Z,17.20
2023-05-14T16:48:56.625Z,17.18
2023-05-14T16:51:23.241Z,17.15
2023-05-14T16:53:49.847Z,17.14
2023-05-14T16:56:16.560Z,17.15
2023-05-14T16:58:43.294Z,17.10
2023-05-14T17:01:10.276Z,17.06
2023-05-14T17:03:37.683Z,17.10
2023-05-14T17:06:04.783Z,17.12
2023-05-14T17:08:33.635Z,17.11
2023-05-14T17:11:00.514Z,17.16
2023-05-14T17:13:27.333Z,17.18
2023-05-14T17:15:53.975Z,17.13
2023-05-14T17:18:20.809Z,17.18
2023-05-14T17:20:47.478Z,17.18
2023-05-14T17:23:14.149Z,17.24
2023-05-14T17:25:41.030Z,17.20
2023-05-14T17:28:07.999Z,17.20
2023-05-14T17:30:34.635Z,17.20
2023-05-14T17:33:01.730Z,17.21
2023-05-14T17:35:28.567Z,17.12
2023-05-14T17:37:55.239Z,17.15
2023-05-14T17:40:21.915Z,17.07
2023-05-14T17:42:48.720Z,17.06
2023-05-14T17:45:15.525Z,17.01
2023-05-14T17:47:42.386Z,16.97
2023-05-14T17:50:09.299Z,17.06
2023-05-14T17:52:36.028Z,17.00
2023-05-14T17:55:02.694Z,16.98
2023-05-14T17:57:29.673Z,16.88
2023-05-14T17:59:56.750Z,16.82
2023-05-14T18:02:23.395Z,16.78
2023-05-14T18:04:50.139Z,16.68
2023-05-14T18:07:16.927Z,16.58
2023-05-14T18:09:43.624Z,16.50
2023-05-14T18:12:10.385Z,16.39
2023-05-14T18:14:36.946Z,16.25
2023-05-14T18:17:03.862Z,16.14
2023-05-14T18:19:30.523Z,16.09
2023-05-14T18:21:57.214Z,15.97
2023-05-14T18:24:23.840Z,15.97
2023-05-14T18:26:50.590Z,15.96
2023-05-14T18:29:17.260Z,15.84
2023-05-14T18:31:44.132Z,15.80
2023-05-14T18:34:11.716Z,15.77
2023-05-14T18:36:38.539Z,15.80
2023-05-14T18:39:05.393Z,15.86
2023-05-14T18:41:32.127Z,15.91
2023-05-14T18:43:58.734Z,15.93
2023-05-14T18:46:25.912Z,15.89
2023-05-14T18:48:52.562Z,15.91
2023-05-14T18:51:19.353Z,15.87
2023-05-14T18:53:45.992Z,15.75
2023-05-14T18:56:12.767Z,15.73
2023-05-14T18:58:39.380Z,15.69
2023-05-14T19:01:06.372Z,15.67
2023-05-14T19:03:33.358Z,15.58
2023-05-14T19:06:00.185Z,15.61
2023-05-14T19:08:26.864Z,15.66
2023-05-14T19:10:53.666Z,15.61
2023-05-14T19:13:20.437Z,15.59
2023-05-14T19:15:47.365Z,15.52
2023-05-14T19:18:14.079Z,15.54
2023-05-14T19:20:40.732Z,15.56
2023-05-14T19:23:07.407Z,15.58
2023-05-14T19:25:34.330Z,15.60
2023-05-14T19:28:03.593Z,15.57
2023-05-14T19:30:30.854Z,15.60
2023-05-14T19:32:57.660Z,15.58
2023-05-14T19:35:24.884Z,15.56
2023-05-14T19:37:51.742Z,15.58
2023-05-14T19:40:18.438Z,15.61
2023-05-14T19:42:44.986Z,15.60
2023-05-14T19:45:11.843Z,15.57
2023-05-14T19:47:39.917Z,15.60
2023-05-14T19:50:08.435Z,15.60
2023-05-14T19:52:35.152Z,15.57
2023-05-14T19:55:01.929Z,15.43
2023-05-14T19:57:29.333Z,15.48
2023-05-14T19:59:56.014Z,15.43
2023-05-14T20:02:22.679Z,15.43
2023-05-14T20:04:49.519Z,15.40
2023-05-14T20:07:16.334Z,15.38
2023-05-14T20:09:42.970Z,15.42
2023-05-14T20:12:09.661Z,15.42
2023-05-14T20:14:36.366Z,15.47
2023-05-14T20:17:03.274Z,15.42
2023-05-14T20:19:30.618Z,15.37
2023-05-14T20:21:57.282Z,15.32
2023-05-14T20:24:24.058Z,15.22
2023-05-14T20:26:50.800Z,15.10
2023-05-14T20:29:17.505Z,14.97
2023-05-14T20:31:44.063Z,14.94
2023-05-14T20:34:10.745Z,14.91
2023-05-14T20:36:37.501Z,14.90
2023-05-14T20:39:06.182Z,14.92
2023-05-14T20:41:32.863Z,14.96
2023-05-14T20:43:59.713Z,15.04
2023-05-14T20:46:26.357Z,15.04
2023-05-14T20:48:57.143Z,15.07
2023-05-14T20:51:23.894Z,15.08
2023-05-14T20:53:50.512Z,15.09
2023-05-14T20:56:17.553Z,15.10
2023-05-14T20:58:44.186Z,15.10
2023-05-14T21:01:10.924Z,15.16
2023-05-14T21:03:37.716Z,15.13
2023-05-14T21:06:05.017Z,14.98
2023-05-14T21:08:32.952Z,14.94
2023-05-14T21:10:59.743Z,14.90
2023-05-14T21:13:26.402Z,14.86
2023-05-14T21:15:53.087Z,14.72
2023-05-14T21:18:19.749Z,14.70
2023-05-14T21:20:46.479Z,14.34
2023-05-14T21:23:13.077Z,14.14
2023-05-14T21:25:39.766Z,14.19
2023-05-14T21:28:06.640Z,14.24
2023-05-14T21:30:33.407Z,14.31
2023-05-14T21:33:00.245Z,14.32
2023-05-14T21:35:27.259Z,14.35
2023-05-14T21:37:54.356Z,14.30
2023-05-14T21:40:21.096Z,14.24
2023-05-14T21:42:47.872Z,14.25
2023-05-14T21:45:14.609Z,14.23
2023-05-14T21:47:41.456Z,14.25
2023-05-14T21:50:08.784Z,14.34
2023-05-14T21:52:35.788Z,14.35
2023-05-14T21:55:02.437Z,14.32
2023-05-14T21:57:31.820Z,14.31
2023-05-14T22:00:00.769Z,14.22
2023-05-14T22:02:27.446Z,14.20
2023-05-14T22:04:54.210Z,14.21
2023-05-14T22:07:21.080Z,14.15
2023-05-14T22:09:48.156Z,14.18
2023-05-14T22:12:14.864Z,14.23
2023-05-14T22:14:41.889Z,14.20
2023-05-14T22:17:08.474Z,14.23
2023-05-14T22:19:35.423Z,14.14
2023-05-14T22:22:02.104Z,14.23
2023-05-14T22:24:28.724Z,14.24
2023-05-14T22:26:55.622Z,14.15
2023-05-14T22:29:22.327Z,14.28
2023-05-14T22:31:49.019Z,14.34
2023-05-14T22:34:16.176Z,14.26
2023-05-14T22:36:42.754Z,14.26
2023-05-14T22:39:11.275Z,14.26
2023-05-14T22:41:39.473Z,14.35
2023-05-14T22:44:06.030Z,14.29
2023-05-14T22:46:32.783Z,14.20
2023-05-14T22:49:00.150Z,14.21
2023-05-14T22:51:26.893Z,14.21
2023-05-14T22:53:54.577Z,14.22
2023-05-14T22:56:22.211Z,14.29
2023-05-14T22:58:48.920Z,14.24
2023-05-14T23:01:15.851Z,14.30
2023-05-14T23:03:42.523Z,14.23
2023-05-14T23:06:09.216Z,14.22
2023-05-14T23:08:35.842Z,14.22
2023-05-14T23:11:02.526Z,14.22
2023-05-14T23:13:29.094Z,14.18
2023-05-14T23:15:55.758Z,14.16
2023-05-14T23:18:24.043Z,14.17
2023-05-14T23:20:50.760Z,14.09
2023-05-14T23:23:17.298Z,14.15
2023-05-14T23:25:44.187Z,14.07
2023-05-14T23:28:11.002Z,14.05
2023-05-14T23:30:37.919Z,14.08
2023-05-14T23:33:04.787Z,14.05
2023-05-14T23:35:31.710Z,13.99
2023-05-14T23:37:58.711Z,13.99
2023-05-14T23:40:25.977Z,13.94
2023-05-14T23:42:52.858Z,14.02
2023-05-14T23:45:19.864Z,13.94
2023-05-14T23:47:47.026Z,13.92
2023-05-14T23:50:14.143Z,13.90
2023-05-14T23:52:40.996Z,13.92
2023-05-14T23:55:10.389Z,13.80
2023-05-14T23:57:37.307Z,13.81
